Terminal Aerodrome Forecast
Issued by NWS Tampa Bay Area, FL

Home | Current Version | Previous Version | Text Only | Print | Product List | Glossary On
Versions: 1 2 3 4 5 6 7 8 9 10 11 12 13 14 15 16 17 18 19 20 21 22 23 24 25 26 27 28
010
FTUS42 KTBW 220532
TAFTPA
TAF
KTPA 220532Z 2206/2312 VRB04KT P6SM SCT030 SCT120 BKN250
     FM221400 12008KT P6SM SCT025 BKN120
     FM221800 14008KT P6SM VCTS SCT035CB BKN120
     FM230000 11006KT P6SM VCSH SCT025 BKN080=

USA.gov is the U.S. government's official web portal to all federal, state and local government web resources and services.